Time;durP1;ratioP1;P1;durP2;ratioP2;P2;SDS_P1;SDS_P2;PMS_P1;PMS_P2;Temp;Humidity;BMP_temperature;BMP_pressure;BME280_temperature;BME280_humidity;BME280_pressure;Samples;Min_cycle;Max_cycle;Signal;HPM_P1;HPM_P2
2023/12/23 00:00:36;;;;;;;5.85;1.27;;;6.70;99.90;;;;;;5063232;28;20119;-75
2023/12/23 00:03:01;;;;;;;1.08;0.40;;;6.70;99.90;;;;;;5054875;28;20464;-76
2023/12/23 00:05:27;;;;;;;2.13;0.52;;;6.60;99.90;;;;;;5064189;28;20044;-75
2023/12/23 00:07:53;;;;;;;9.13;1.98;;;6.60;99.90;;;;;;5044665;28;20108;-74
2023/12/23 00:10:19;;;;;;;8.15;1.30;;;6.60;99.90;;;;;;5064327;28;20044;-76
2023/12/23 00:12:44;;;;;;;4.97;0.75;;;6.60;99.90;;;;;;5059616;28;20086;-75
2023/12/23 00:15:10;;;;;;;1.23;0.30;;;6.60;99.90;;;;;;5066704;28;20028;-77
2023/12/23 00:17:36;;;;;;;3.83;0.47;;;6.60;99.90;;;;;;5054007;28;20499;-77
2023/12/23 00:20:02;;;;;;;2.08;0.77;;;6.60;99.90;;;;;;5057201;28;20032;-75
2023/12/23 00:22:28;;;;;;;4.65;0.73;;;6.60;99.90;;;;;;5060026;28;20558;-77
2023/12/23 00:24:53;;;;;;;6.50;0.77;;;6.60;99.90;;;;;;5062563;28;20044;-76
2023/12/23 00:27:19;;;;;;;5.18;0.73;;;6.50;99.90;;;;;;5056184;28;20059;-76
2023/12/23 00:29:45;;;;;;;6.72;0.82;;;6.50;99.90;;;;;;5065181;28;20120;-76
2023/12/23 00:32:11;;;;;;;2.50;0.73;;;6.50;99.90;;;;;;5058631;28;20044;-75
2023/12/23 00:34:36;;;;;;;1.83;0.82;;;6.60;99.90;;;;;;5066386;28;20048;-77
2023/12/23 00:37:02;;;;;;;2.03;0.98;;;6.60;99.90;;;;;;5058029;28;20032;-75
2023/12/23 00:39:28;;;;;;;1.15;0.57;;;6.60;99.90;;;;;;5042622;28;20618;-76
2023/12/23 00:41:54;;;;;;;8.75;1.35;;;6.60;99.90;;;;;;5046159;28;20053;-76
2023/12/23 00:44:20;;;;;;;3.28;0.55;;;6.70;99.90;;;;;;5020985;28;20057;-76
2023/12/23 00:46:45;;;;;;;2.67;0.50;;;6.70;99.90;;;;;;5022619;28;20542;-76
2023/12/23 00:49:11;;;;;;;4.97;0.85;;;6.70;99.90;;;;;;5038819;28;20048;-76
2023/12/23 00:51:37;;;;;;;11.30;1.08;;;6.70;99.90;;;;;;5035382;28;20092;-75
2023/12/23 00:54:03;;;;;;;3.72;0.63;;;6.70;99.90;;;;;;5043494;28;20048;-76
2023/12/23 00:56:28;;;;;;;3.63;0.85;;;6.70;99.90;;;;;;5026727;28;20413;-76
2023/12/23 00:58:54;;;;;;;3.90;0.52;;;6.80;99.90;;;;;;5040834;28;20041;-76
2023/12/23 01:01:20;;;;;;;4.47;0.85;;;6.70;99.90;;;;;;5024253;28;20187;-77
2023/12/23 01:03:46;;;;;;;4.43;0.73;;;6.70;99.90;;;;;;5024171;28;20501;-76
2023/12/23 01:06:12;;;;;;;5.13;0.82;;;6.70;99.90;;;;;;5023255;28;20041;-76
2023/12/23 01:08:37;;;;;;;1.15;0.63;;;6.70;99.90;;;;;;5042602;28;20068;-76
2023/12/23 01:11:03;;;;;;;3.63;0.80;;;6.70;99.90;;;;;;5046866;28;20469;-76
2023/12/23 01:13:29;;;;;;;7.35;1.27;;;6.70;99.90;;;;;;5035876;28;20510;-77
2023/12/23 01:15:55;;;;;;;6.57;0.95;;;6.70;99.90;;;;;;5022498;28;20477;-76
2023/12/23 01:18:20;;;;;;;3.17;0.63;;;6.70;99.90;;;;;;5039122;28;20040;-76
2023/12/23 01:20:46;;;;;;;5.20;0.77;;;6.70;99.90;;;;;;5035028;28;20038;-76
2023/12/23 01:23:12;;;;;;;2.95;0.63;;;6.70;99.90;;;;;;5043283;28;20037;-77
2023/12/23 01:25:38;;;;;;;1.70;0.85;;;6.70;99.90;;;;;;5038399;28;20130;-77
2023/12/23 01:28:04;;;;;;;1.60;0.38;;;6.60;99.90;;;;;;5042650;28;20032;-77
2023/12/23 01:30:36;;;;;;;0.52;0.50;;;6.60;99.90;;;;;;5021575;28;20041;-78
2023/12/23 01:33:02;;;;;;;11.60;0.63;;;6.60;99.90;;;;;;5043678;28;20603;-76
2023/12/23 01:35:27;;;;;;;2.88;0.98;;;6.60;99.90;;;;;;5050626;28;20115;-77
2023/12/23 01:37:53;;;;;;;6.13;1.42;;;6.60;99.90;;;;;;5037721;28;20038;-76
2023/12/23 01:40:19;;;;;;;2.20;0.65;;;6.60;99.90;;;;;;5041295;28;20037;-76
2023/12/23 01:42:45;;;;;;;4.30;0.73;;;6.60;99.90;;;;;;5025897;28;20064;-76
2023/12/23 01:45:11;;;;;;;8.88;1.10;;;6.60;99.90;;;;;;5029330;28;20048;-76
2023/12/23 01:47:41;;;;;;;0.90;0.65;;;6.60;99.90;;;;;;5042056;28;20045;-77
2023/12/23 01:50:08;;;;;;;;;;;6.50;99.90;;;;;;5030111;28;20104;-76
2023/12/23 01:52:36;;;;;;;3.78;0.45;;;6.50;99.90;;;;;;5034126;28;19917;-77
2023/12/23 01:55:03;;;;;;;0.90;0.20;;;6.50;99.90;;;;;;5041304;28;20099;-77
2023/12/23 01:57:29;;;;;;;5.63;1.30;;;6.40;99.90;;;;;;5044474;28;20041;-77
2023/12/23 01:59:56;;;;;;;3.20;0.93;;;6.40;99.90;;;;;;5039391;28;20044;-77
2023/12/23 02:02:22;;;;;;;2.10;0.35;;;6.40;99.90;;;;;;5043135;28;20490;-77
2023/12/23 02:04:48;;;;;;;5.50;0.57;;;6.40;99.90;;;;;;5045232;28;20123;-77
2023/12/23 02:07:14;;;;;;;4.95;0.88;;;6.40;99.90;;;;;;5040991;28;20088;-78
2023/12/23 02:09:40;;;;;;;1.45;0.30;;;6.40;99.90;;;;;;5045176;28;20049;-78
2023/12/23 02:12:37;;;;;;;2.10;0.68;;;6.40;99.90;;;;;;5042050;28;20044;-76
2023/12/23 02:15:14;;;;;;;1.45;0.38;;;6.40;99.90;;;;;;4962405;28;20492;-77
2023/12/23 02:17:40;;;;;;;4.82;0.50;;;6.50;99.90;;;;;;5033555;28;20065;-77
2023/12/23 02:20:07;;;;;;;5.68;0.65;;;6.50;99.90;;;;;;5021442;28;20059;-78
2023/12/23 02:22:33;;;;;;;1.02;0.30;;;6.50;99.90;;;;;;5041535;28;20579;-78
2023/12/23 02:24:59;;;;;;;0.52;0.28;;;6.40;99.90;;;;;;5039712;28;20077;-77
2023/12/23 02:27:38;;;;;;;1.30;0.80;;;6.40;99.90;;;;;;5036986;28;20041;-79
2023/12/23 02:30:04;;;;;;;2.10;0.20;;;6.30;99.90;;;;;;5041511;28;20060;-79
2023/12/23 02:32:31;;;;;;;2.55;0.22;;;6.30;99.90;;;;;;5027072;28;20124;-78
2023/12/23 02:34:57;;;;;;;2.92;0.85;;;6.20;99.90;;;;;;5042420;28;20043;-79
2023/12/23 02:37:23;;;;;;;1.83;0.63;;;6.20;99.90;;;;;;5024584;28;20041;-79
2023/12/23 02:39:48;;;;;;;1.67;0.57;;;6.10;99.90;;;;;;5040267;28;20103;-80
2023/12/23 02:42:14;;;;;;;4.05;1.25;;;6.10;99.90;;;;;;5043813;28;20056;-81
2023/12/23 02:44:40;;;;;;;1.40;0.63;;;6.00;99.90;;;;;;5044086;28;20049;-80
2023/12/23 02:47:06;;;;;;;6.43;1.08;;;6.00;99.90;;;;;;5041307;28;20076;-76
2023/12/23 02:49:31;;;;;;;1.48;0.43;;;6.00;99.90;;;;;;5036694;28;20100;-79
2023/12/23 02:51:57;;;;;;;5.00;0.60;;;6.00;99.90;;;;;;5036036;28;20037;-78
2023/12/23 02:54:23;;;;;;;5.20;0.55;;;6.00;99.90;;;;;;5042175;28;20040;-78
2023/12/23 02:56:49;;;;;;;0.85;0.43;;;5.90;99.90;;;;;;5030116;28;20038;-78
2023/12/23 02:59:14;;;;;;;1.55;0.57;;;5.90;99.90;;;;;;5009027;28;20037;-79
2023/12/23 03:01:40;;;;;;;1.27;0.60;;;5.90;99.90;;;;;;5037118;28;20038;-79
2023/12/23 03:04:06;;;;;;;1.88;0.38;;;5.90;99.90;;;;;;5035092;28;20501;-79
2023/12/23 03:06:32;;;;;;;0.38;0.30;;;5.90;99.90;;;;;;5041300;28;20040;-79
2023/12/23 03:08:57;;;;;;;0.73;0.57;;;5.90;99.90;;;;;;5020069;28;20045;-80
2023/12/23 03:11:23;;;;;;;0.35;0.20;;;6.00;99.90;;;;;;5041741;28;20041;-80
2023/12/23 03:13:49;;;;;;;5.03;0.35;;;5.90;99.90;;;;;;5016608;28;20505;-81
2023/12/23 03:16:16;;;;;;;2.38;0.47;;;6.00;99.90;;;;;;5040303;28;20378;-81
2023/12/23 03:18:43;;;;;;;1.42;0.45;;;6.00;99.90;;;;;;5040112;28;20052;-81
2023/12/23 03:21:09;;;;;;;3.60;0.50;;;6.00;99.90;;;;;;5043555;28;20086;-82
2023/12/23 03:23:34;;;;;;;2.50;0.30;;;6.00;99.90;;;;;;5016238;28;20041;-82
2023/12/23 03:26:01;;;;;;;6.85;1.17;;;6.00;99.90;;;;;;5027812;28;20413;-82
2023/12/23 03:28:26;;;;;;;2.83;0.52;;;6.00;99.90;;;;;;5044376;28;20040;-83
2023/12/23 03:30:52;;;;;;;1.85;0.38;;;6.10;99.90;;;;;;5044311;28;20396;-82
2023/12/23 03:33:18;;;;;;;1.00;0.20;;;6.10;99.90;;;;;;5011237;28;20034;-82
2023/12/23 03:35:44;;;;;;;0.28;0.17;;;6.10;99.90;;;;;;5040547;28;20057;-82
2023/12/23 03:38:09;;;;;;;3.38;0.45;;;6.10;99.90;;;;;;5029593;28;20504;-83
2023/12/23 03:40:35;;;;;;;0.10;0.10;;;6.20;99.90;;;;;;5040803;28;20045;-83
2023/12/23 03:43:01;;;;;;;4.63;0.20;;;6.20;99.90;;;;;;5039201;28;20472;-82
2023/12/23 03:45:27;;;;;;;0.35;0.20;;;6.20;99.90;;;;;;5041312;28;20068;-82
2023/12/23 03:47:52;;;;;;;1.08;0.45;;;6.20;99.90;;;;;;5037616;28;20075;-83
2023/12/23 03:50:18;;;;;;;0.45;0.40;;;6.20;99.90;;;;;;5040148;28;20029;-82
2023/12/23 03:52:44;;;;;;;0.82;0.32;;;6.20;99.90;;;;;;5043331;28;20040;-81
2023/12/23 03:55:11;;;;;;;0.20;0.20;;;6.20;99.90;;;;;;5038822;28;20033;-82
2023/12/23 03:57:37;;;;;;;2.80;0.22;;;6.20;99.90;;;;;;5042453;28;20040;-83
2023/12/23 04:00:04;;;;;;;3.63;0.35;;;6.20;99.90;;;;;;5027883;28;20557;-83
2023/12/23 04:02:30;;;;;;;0.60;0.30;;;6.20;99.90;;;;;;5031977;28;20045;-83
2023/12/23 04:04:56;;;;;;;0.93;0.20;;;6.20;99.90;;;;;;5039087;28;20256;-83
2023/12/23 04:07:22;;;;;;;2.72;0.63;;;6.20;99.90;;;;;;5042106;28;20452;-84
2023/12/23 04:09:48;;;;;;;0.10;0.10;;;6.20;99.90;;;;;;5039573;28;20120;-82
2023/12/23 04:12:13;;;;;;;2.00;0.40;;;6.20;99.90;;;;;;5042911;28;20037;-82
2023/12/23 04:14:40;;;;;;;0.90;0.32;;;6.20;99.90;;;;;;5037139;28;20030;-83
2023/12/23 04:17:07;;;;;;;0.03;0.03;;;6.20;99.90;;;;;;5038633;28;20374;-83
2023/12/23 04:19:32;;;;;;;0.70;0.38;;;6.20;99.90;;;;;;5041943;28;20041;-83
2023/12/23 04:21:58;;;;;;;0.47;0.47;;;6.20;99.90;;;;;;5043056;28;20529;-83
2023/12/23 04:24:26;;;;;;;1.95;0.40;;;6.20;99.90;;;;;;5022162;28;20073;-84
2023/12/23 04:26:52;;;;;;;3.22;0.45;;;6.30;99.90;;;;;;5041678;28;20052;-85
2023/12/23 04:29:19;;;;;;;1.58;0.30;;;6.30;99.90;;;;;;5039320;28;20072;-85
2023/12/23 04:31:44;;;;;;;0.20;0.10;;;6.30;99.90;;;;;;5039448;28;20037;-84
2023/12/23 04:34:10;;;;;;;1.00;0.35;;;6.30;99.90;;;;;;5023251;28;20477;-84
2023/12/23 04:36:37;;;;;;;1.55;0.20;;;6.30;99.90;;;;;;5025149;28;20068;-85
2023/12/23 04:39:04;;;;;;;0.10;0.10;;;6.30;99.90;;;;;;5033920;28;20052;-84
2023/12/23 04:41:30;;;;;;;0.35;0.20;;;6.30;99.90;;;;;;5046435;28;20061;-85
2023/12/23 04:43:55;;;;;;;0.10;0.10;;;6.30;99.90;;;;;;5062006;28;20069;-86
2023/12/23 04:46:21;;;;;;;0.20;0.20;;;6.30;99.90;;;;;;5062813;28;20041;-86
2023/12/23 04:48:47;;;;;;;0.10;0.10;;;6.20;99.90;;;;;;5061906;28;20429;-86
2023/12/23 04:51:13;;;;;;;0.13;0.13;;;6.20;99.90;;;;;;5061456;28;20126;-85
2023/12/23 04:53:39;;;;;;;0.10;0.10;;;6.20;99.90;;;;;;5040771;28;20039;-86
2023/12/23 04:56:05;;;;;;;1.92;0.57;;;6.30;99.90;;;;;;5065423;28;20029;-83
2023/12/23 04:58:31;;;;;;;1.08;0.43;;;6.40;99.90;;;;;;5045750;28;20047;-86
2023/12/23 05:00:56;;;;;;;0.47;0.40;;;6.70;99.90;;;;;;5061825;28;20048;-85
2023/12/23 05:03:22;;;;;;;5.00;1.00;;;7.00;99.90;;;;;;5062319;28;20107;-73
2023/12/23 05:05:48;;;;;;;6.97;1.27;;;7.10;99.90;;;;;;5062619;28;20032;-84
2023/12/23 05:08:16;;;;;;;7.47;1.02;;;7.50;99.90;;;;;;5053095;28;20392;-79
2023/12/23 05:10:44;;;;;;;8.80;1.35;;;7.70;99.90;;;;;;5049321;28;20043;-80
2023/12/23 05:13:10;;;;;;;3.13;1.60;;;7.90;99.90;;;;;;5068749;28;20083;-84
2023/12/23 05:15:36;;;;;;;2.72;1.20;;;8.10;99.90;;;;;;5065332;28;20488;-78
2023/12/23 05:18:03;;;;;;;2.45;0.98;;;8.20;99.90;;;;;;5051066;28;20085;-81
2023/12/23 05:20:28;;;;;;;4.05;1.40;;;8.40;99.90;;;;;;5058726;28;20045;-79
2023/12/23 05:22:54;;;;;;;2.85;1.00;;;8.40;99.90;;;;;;5060042;28;20036;-85
2023/12/23 05:25:20;;;;;;;7.70;1.23;;;8.50;99.90;;;;;;5039831;28;20118;-81
2023/12/23 05:27:46;;;;;;;8.40;1.58;;;8.60;99.90;;;;;;5058324;28;20040;-81
2023/12/23 05:30:12;;;;;;;8.05;1.90;;;8.60;99.90;;;;;;5060572;28;20040;-80
2023/12/23 05:32:37;;;;;;;4.47;1.88;;;8.70;99.90;;;;;;5068981;28;20115;-78
2023/12/23 05:35:03;;;;;;;3.58;1.00;;;8.70;99.90;;;;;;5055177;28;20068;-78
2023/12/23 05:37:29;;;;;;;3.72;1.70;;;8.70;99.90;;;;;;5058934;28;20438;-79
2023/12/23 05:39:55;;;;;;;0.93;0.50;;;8.80;99.90;;;;;;5056336;28;20502;-80
2023/12/23 05:42:21;;;;;;;3.33;1.08;;;8.80;99.90;;;;;;5063673;28;20056;-77
2023/12/23 05:44:46;;;;;;;8.18;1.40;;;8.80;99.90;;;;;;5043821;28;20068;-79
2023/12/23 05:47:13;;;;;;;13.93;2.53;;;8.70;99.90;;;;;;5053575;28;20117;-80
2023/12/23 05:49:38;;;;;;;9.23;1.77;;;8.80;99.90;;;;;;5038948;28;20048;-79
2023/12/23 05:52:04;;;;;;;12.18;1.42;;;8.80;99.90;;;;;;5065202;28;20408;-77
2023/12/23 05:54:30;;;;;;;3.35;1.10;;;8.80;99.90;;;;;;5044416;28;20058;-77
2023/12/23 05:56:56;;;;;;;2.50;1.08;;;8.80;99.90;;;;;;5061458;28;20037;-80
2023/12/23 05:59:22;;;;;;;12.63;3.25;;;8.80;99.90;;;;;;5064826;28;20110;-78
2023/12/23 06:01:47;;;;;;;5.65;2.28;;;8.90;99.90;;;;;;5056760;28;20079;-79
2023/12/23 06:04:13;;;;;;;13.25;1.40;;;8.80;99.90;;;;;;5078538;28;20044;-80
2023/12/23 06:06:39;;;;;;;8.65;1.90;;;8.90;99.90;;;;;;5063468;28;20075;-78
2023/12/23 06:09:04;;;;;;;9.07;2.15;;;8.90;99.90;;;;;;5035029;28;20044;-77
2023/12/23 06:11:30;;;;;;;6.68;1.05;;;8.90;99.90;;;;;;5047431;28;20518;-82
2023/12/23 06:13:56;;;;;;;7.88;1.30;;;9.00;99.90;;;;;;5057186;28;20423;-75
2023/12/23 06:16:22;;;;;;;5.03;0.80;;;9.00;99.90;;;;;;5061246;28;20032;-78
2023/12/23 06:18:48;;;;;;;2.05;1.33;;;9.00;99.90;;;;;;5043315;28;20048;-77
2023/12/23 06:21:13;;;;;;;3.58;1.50;;;9.10;99.90;;;;;;5064713;28;20048;-77
2023/12/23 06:23:39;;;;;;;2.45;1.33;;;9.10;99.90;;;;;;5059949;28;20067;-79
2023/12/23 06:26:05;;;;;;;4.72;1.10;;;9.10;99.90;;;;;;5062027;28;20033;-81
2023/12/23 06:28:31;;;;;;;13.13;2.33;;;9.20;99.90;;;;;;5046387;28;20048;-76
2023/12/23 06:30:57;;;;;;;7.80;1.95;;;9.20;99.90;;;;;;5035353;28;20048;-79
2023/12/23 06:33:22;;;;;;;10.35;1.77;;;9.30;99.90;;;;;;5027166;28;20029;-77
2023/12/23 06:35:48;;;;;;;7.18;1.45;;;9.30;99.90;;;;;;5058815;28;20484;-73
2023/12/23 06:38:15;;;;;;;15.05;3.03;;;9.30;99.90;;;;;;5044436;28;20454;-77
2023/12/23 06:40:41;;;;;;;2.55;1.13;;;9.30;99.90;;;;;;5055297;28;20068;-74
2023/12/23 06:43:07;;;;;;;7.88;1.73;;;9.30;99.90;;;;;;5056792;28;20408;-76
2023/12/23 06:45:33;;;;;;;4.90;1.52;;;9.30;99.90;;;;;;5066231;28;20040;-77
2023/12/23 06:47:59;;;;;;;12.00;2.55;;;9.30;99.90;;;;;;5060414;28;20048;-79
2023/12/23 06:50:24;;;;;;;6.07;1.15;;;9.30;99.90;;;;;;5063359;28;20043;-81
2023/12/23 06:52:50;;;;;;;3.00;1.00;;;9.30;99.90;;;;;;5051728;28;20115;-77
2023/12/23 06:55:16;;;;;;;8.95;1.58;;;9.30;99.90;;;;;;5064605;28;20048;-78
2023/12/23 06:57:42;;;;;;;2.47;0.93;;;9.40;99.90;;;;;;5039880;28;20129;-78
2023/12/23 07:00:08;;;;;;;7.75;2.30;;;9.40;99.90;;;;;;5063095;28;20051;-78
2023/12/23 07:02:37;;;;;;;6.70;1.67;;;9.40;99.90;;;;;;5074124;28;20041;-81
2023/12/23 07:05:03;;;;;;;8.02;1.38;;;9.40;99.90;;;;;;5057359;28;20040;-75
2023/12/23 07:07:29;;;;;;;3.80;0.98;;;9.50;99.90;;;;;;5042525;28;20044;-77
2023/12/23 07:09:55;;;;;;;6.47;1.40;;;9.50;99.90;;;;;;5058604;28;20044;-76
2023/12/23 07:12:21;;;;;;;12.30;2.58;;;9.50;99.90;;;;;;5030635;28;20037;-77
2023/12/23 07:14:47;;;;;;;13.20;1.98;;;9.50;99.90;;;;;;5058754;28;20048;-78
2023/12/23 07:17:12;;;;;;;12.30;2.17;;;9.60;99.90;;;;;;5050334;28;20112;-78
2023/12/23 07:19:38;;;;;;;8.13;1.83;;;9.60;99.90;;;;;;5051328;28;20559;-77
2023/12/23 07:22:04;;;;;;;9.07;2.40;;;9.60;99.90;;;;;;5054562;28;20059;-77
2023/12/23 07:24:30;;;;;;;6.45;1.77;;;9.60;99.90;;;;;;5055382;28;20041;-79
2023/12/23 07:26:55;;;;;;;12.55;1.45;;;9.60;99.90;;;;;;5062874;28;20043;-77
2023/12/23 07:29:21;;;;;;;13.15;2.60;;;9.60;99.90;;;;;;5055091;28;20481;-78
2023/12/23 07:31:47;;;;;;;10.77;2.47;;;9.60;99.90;;;;;;5039421;28;20591;-79
2023/12/23 07:34:13;;;;;;;5.03;1.25;;;9.60;99.90;;;;;;5055982;28;20049;-79
2023/12/23 07:36:38;;;;;;;12.98;1.60;;;9.60;99.90;;;;;;5056711;28;20040;-78
2023/12/23 07:39:05;;;;;;;9.80;1.85;;;9.60;99.90;;;;;;5046793;28;20167;-76
2023/12/23 07:41:30;;;;;;;9.50;2.38;;;9.60;99.90;;;;;;5065780;28;20057;-77
2023/12/23 07:43:56;;;;;;;14.18;2.40;;;9.60;99.90;;;;;;5033178;28;20098;-79
2023/12/23 07:46:23;;;;;;;17.38;2.78;;;9.60;99.90;;;;;;5039766;28;20050;-76
2023/12/23 07:48:49;;;;;;;2.13;1.15;;;9.60;99.90;;;;;;5032286;28;20138;-76
2023/12/23 07:51:15;;;;;;;8.02;1.98;;;9.60;99.90;;;;;;5032804;28;20042;-79
2023/12/23 07:53:41;;;;;;;2.95;1.15;;;9.60;99.90;;;;;;5034689;28;20052;-77
2023/12/23 07:56:07;;;;;;;11.07;1.88;;;9.60;99.90;;;;;;5029974;28;20072;-76
2023/12/23 07:58:33;;;;;;;8.68;2.20;;;9.60;99.90;;;;;;5031186;28;20049;-75
2023/12/23 08:01:01;;;;;;;6.38;1.55;;;9.60;99.90;;;;;;5014746;28;20044;-75
2023/12/23 08:03:26;;;;;;;4.30;1.27;;;9.60;99.90;;;;;;5010481;28;20061;-78
2023/12/23 08:05:52;;;;;;;7.63;1.27;;;9.60;99.90;;;;;;5015043;28;20029;-75
2023/12/23 08:08:18;;;;;;;5.60;0.75;;;9.60;99.90;;;;;;5039498;28;20044;-77
2023/12/23 08:10:44;;;;;;;11.45;1.63;;;9.60;99.90;;;;;;5032334;28;20048;-74
2023/12/23 08:13:09;;;;;;;6.95;1.67;;;9.60;99.90;;;;;;5038507;28;20470;-77
2023/12/23 08:15:35;;;;;;;5.60;2.47;;;9.70;99.90;;;;;;5031398;28;20037;-78
2023/12/23 08:18:04;;;;;;;8.18;1.33;;;9.70;99.90;;;;;;5022361;28;20033;-74
2023/12/23 08:20:30;;;;;;;4.37;1.57;;;9.70;99.90;;;;;;5034666;28;20045;-77
2023/12/23 08:22:56;;;;;;;3.63;0.70;;;9.70;99.90;;;;;;5034537;28;20280;-77
2023/12/23 08:25:21;;;;;;;8.85;1.65;;;9.70;99.90;;;;;;5038767;28;20087;-77
2023/12/23 08:27:47;;;;;;;7.85;2.28;;;9.80;99.90;;;;;;5035180;28;20045;-81
2023/12/23 08:30:13;;;;;;;8.40;1.85;;;9.80;99.90;;;;;;5025052;28;20111;-80
2023/12/23 08:32:39;;;;;;;9.55;1.40;;;9.70;99.90;;;;;;5038756;28;20073;-78
2023/12/23 08:35:05;;;;;;;9.23;1.08;;;9.80;99.90;;;;;;5034659;28;20053;-80
2023/12/23 08:37:31;;;;;;;3.15;0.88;;;9.80;99.90;;;;;;5020566;28;20054;-78
2023/12/23 08:39:57;;;;;;;8.82;1.55;;;9.80;99.90;;;;;;5029200;28;20044;-74
2023/12/23 08:42:22;;;;;;;10.98;2.20;;;9.80;99.90;;;;;;5036687;28;20053;-71
2023/12/23 08:44:49;;;;;;;11.20;1.90;;;9.80;99.90;;;;;;5031287;28;20486;-75
2023/12/23 08:47:15;;;;;;;13.77;2.33;;;9.80;99.90;;;;;;5037826;28;20040;-76
2023/12/23 08:49:41;;;;;;;13.10;2.50;;;9.80;99.90;;;;;;5041016;28;20076;-77
2023/12/23 08:52:08;;;;;;;4.13;1.70;;;9.90;99.90;;;;;;5033871;28;20393;-77
2023/12/23 08:54:34;;;;;;;8.10;1.85;;;9.90;99.90;;;;;;5031893;28;20363;-77
2023/12/23 08:56:59;;;;;;;12.35;1.60;;;9.90;99.90;;;;;;5034590;28;20048;-78
2023/12/23 08:59:25;;;;;;;3.67;1.02;;;10.00;99.90;;;;;;5037058;28;20072;-76
2023/12/23 09:01:51;;;;;;;3.67;0.65;;;10.00;99.90;;;;;;5020453;28;20049;-78
2023/12/23 09:04:18;;;;;;;15.88;1.65;;;10.00;99.90;;;;;;5037549;28;20095;-75
2023/12/23 09:06:44;;;;;;;4.70;1.45;;;10.00;99.90;;;;;;5039662;28;20383;-75
2023/12/23 09:09:10;;;;;;;5.07;1.83;;;10.00;99.90;;;;;;5017469;28;20040;-73
2023/12/23 09:11:43;;;;;;;6.05;1.95;;;10.00;99.90;;;;;;5031634;28;20041;-78
2023/12/23 09:14:10;;;;;;;8.90;2.08;;;10.00;99.90;;;;;;5037121;28;20036;-79
2023/12/23 09:16:36;;;;;;;16.45;1.80;;;10.00;99.90;;;;;;5041732;28;20042;-72
2023/12/23 09:19:03;;;;;;;9.82;1.52;;;10.00;99.90;;;;;;5030497;28;20052;-75
2023/12/23 09:21:29;;;;;;;4.13;0.90;;;10.00;99.90;;;;;;5013830;28;20057;-72
2023/12/23 09:23:55;;;;;;;4.45;0.90;;;10.10;99.90;;;;;;5032756;28;20049;-74
2023/12/23 09:26:23;;;;;;;9.57;1.20;;;10.10;99.90;;;;;;5032797;28;20048;-76
2023/12/23 09:28:49;;;;;;;7.95;1.33;;;10.10;99.90;;;;;;5033406;28;20512;-74
2023/12/23 09:31:15;;;;;;;9.23;1.73;;;10.10;99.90;;;;;;5031725;28;20038;-74
2023/12/23 09:33:40;;;;;;;4.43;0.77;;;10.10;99.90;;;;;;5011445;28;20034;-72
2023/12/23 09:36:06;;;;;;;8.75;1.48;;;10.10;99.90;;;;;;5015352;28;20037;-80
2023/12/23 09:38:32;;;;;;;9.73;1.20;;;10.00;99.90;;;;;;5022459;28;20092;-77
2023/12/23 09:40:58;;;;;;;5.57;1.42;;;10.00;99.90;;;;;;5036223;28;20041;-73
2023/12/23 09:43:24;;;;;;;7.68;1.08;;;10.10;99.90;;;;;;5056047;28;20102;-76
2023/12/23 09:45:51;;;;;;;13.68;1.63;;;10.00;99.90;;;;;;5059814;28;20123;-77
2023/12/23 09:48:18;;;;;;;9.00;1.40;;;10.10;99.90;;;;;;5060579;28;20065;-74
2023/12/23 09:50:45;;;;;;;6.82;1.63;;;10.10;99.90;;;;;;5035183;28;20120;-73
2023/12/23 09:53:13;;;;;;;5.63;1.13;;;10.10;99.90;;;;;;5055404;28;20113;-72
2023/12/23 09:55:43;;;;;;;6.38;1.42;;;10.00;99.90;;;;;;5056276;28;20051;-71
2023/12/23 09:58:09;;;;;;;8.63;1.38;;;10.10;99.90;;;;;;5053308;28;20476;-71
2023/12/23 10:00:34;;;;;;;5.40;1.48;;;10.10;99.90;;;;;;5052628;28;20086;-73
2023/12/23 10:03:00;;;;;;;4.03;1.02;;;10.10;99.90;;;;;;5055895;28;20067;-73
2023/12/23 10:05:27;;;;;;;5.18;1.02;;;10.10;99.90;;;;;;5056171;28;20131;-69
2023/12/23 10:07:58;;;;;;;9.23;1.27;;;10.10;99.90;;;;;;5056004;28;20040;-71
2023/12/23 10:10:25;;;;;;;4.82;1.13;;;10.10;99.90;;;;;;5055268;28;20076;-72
2023/12/23 10:12:52;;;;;;;21.13;3.53;;;10.10;99.90;;;;;;5053001;28;20040;-75
2023/12/23 10:15:18;;;;;;;8.07;1.85;;;10.10;99.90;;;;;;5059819;28;20032;-74
2023/12/23 10:17:44;;;;;;;12.85;3.72;;;10.10;99.90;;;;;;5054206;28;20040;-73
2023/12/23 10:20:13;;;;;;;10.45;2.28;;;10.20;99.90;;;;;;5033852;28;20044;-72
2023/12/23 10:22:46;;;;;;;7.88;1.92;;;10.10;99.90;;;;;;5055624;28;20047;-73
2023/12/23 10:25:13;;;;;;;6.57;1.80;;;10.10;99.90;;;;;;5055494;28;20032;-74
2023/12/23 10:27:42;;;;;;;6.70;0.98;;;10.20;99.90;;;;;;5055742;28;20044;-74
2023/12/23 10:30:10;;;;;;;10.20;2.45;;;10.10;99.90;;;;;;5051896;28;20044;-75
2023/12/23 10:32:38;;;;;;;5.53;1.15;;;10.20;99.90;;;;;;5047668;28;20074;-74
2023/12/23 10:35:06;;;;;;;6.72;1.17;;;10.10;99.90;;;;;;5053485;28;20655;-73
2023/12/23 10:37:34;;;;;;;6.85;1.10;;;10.10;99.90;;;;;;5058511;28;20246;-79
2023/12/23 10:40:11;;;;;;;10.50;0.98;;;10.10;99.90;;;;;;5050172;28;20040;-76
2023/12/23 10:42:39;;;;;;;3.63;1.08;;;10.00;99.90;;;;;;5056542;28;20067;-75
2023/12/23 10:45:07;;;;;;;6.57;1.45;;;10.10;99.90;;;;;;5054913;28;20041;-76
2023/12/23 10:47:34;;;;;;;5.45;0.80;;;10.00;99.90;;;;;;5044664;28;20499;-76
2023/12/23 10:50:00;;;;;;;3.70;1.70;;;10.00;99.90;;;;;;5056272;28;20051;-73
2023/12/23 10:52:26;;;;;;;8.95;1.83;;;10.00;99.90;;;;;;5042842;28;20036;-73
2023/12/23 10:54:53;;;;;;;6.88;1.05;;;10.00;99.90;;;;;;5061287;28;20107;-73
2023/12/23 10:57:22;;;;;;;10.60;1.98;;;10.00;99.90;;;;;;5040659;28;20119;-74
2023/12/23 10:59:48;;;;;;;7.93;1.35;;;9.90;99.90;;;;;;5055300;28;20045;-74
2023/12/23 11:02:18;;;;;;;3.97;1.38;;;9.90;99.90;;;;;;5055101;28;20427;-74
2023/12/23 11:04:49;;;;;;;;;;;9.90;99.90;;;;;;5073678;28;20029;-73
2023/12/23 11:07:17;;;;;;;11.13;2.05;;;9.90;99.90;;;;;;5055007;28;19917;-73
2023/12/23 11:09:47;;;;;;;7.65;0.90;;;9.90;99.90;;;;;;5059011;28;20128;-74
2023/12/23 11:12:15;;;;;;;4.15;0.93;;;9.90;99.90;;;;;;5055812;28;20114;-73
2023/12/23 11:14:41;;;;;;;23.17;3.20;;;9.90;99.90;;;;;;5052582;28;20385;-75
2023/12/23 11:17:28;;;;;;;9.35;1.73;;;9.90;99.90;;;;;;5053398;28;20047;-75
2023/12/23 11:20:03;;;;;;;8.93;1.33;;;9.90;99.90;;;;;;5050437;28;20040;-73
2023/12/23 11:22:36;;;;;;;16.23;2.05;;;10.00;99.90;;;;;;5054439;28;20063;-73
2023/12/23 11:25:02;;;;;;;5.53;1.05;;;10.00;99.90;;;;;;5054591;28;20140;-72
2023/12/23 11:27:43;;;;;;;10.73;1.08;;;10.10;99.90;;;;;;5050781;28;20135;-73
2023/12/23 11:30:09;;;;;;;5.63;1.55;;;10.10;99.90;;;;;;5037942;28;20040;-72
2023/12/23 11:32:41;;;;;;;6.63;1.50;;;10.10;99.90;;;;;;5037463;28;20035;-74
2023/12/23 11:35:12;;;;;;;4.78;1.70;;;10.20;99.90;;;;;;5054360;28;20380;-74
2023/12/23 11:37:57;;;;;;;7.40;1.13;;;10.20;99.90;;;;;;5039626;28;20566;-72
2023/12/23 11:40:23;;;;;;;3.85;1.67;;;10.20;99.90;;;;;;5048269;28;20048;-73
2023/12/23 11:42:49;;;;;;;5.10;2.15;;;10.20;99.90;;;;;;5034233;28;20132;-73
2023/12/23 11:45:16;;;;;;;8.10;1.10;;;10.20;99.90;;;;;;5030732;28;20037;-72
2023/12/23 11:47:42;;;;;;;8.18;2.08;;;10.30;99.90;;;;;;5016254;28;20048;-73
2023/12/23 11:50:09;;;;;;;8.80;1.88;;;10.20;99.90;;;;;;5014280;28;20038;-73
2023/12/23 11:52:35;;;;;;;6.05;1.15;;;10.30;99.90;;;;;;5029689;28;20037;-73
2023/12/23 11:55:03;;;;;;;5.32;2.10;;;10.30;99.90;;;;;;5034773;28;20048;-74
2023/12/23 11:57:30;;;;;;;8.75;1.52;;;10.30;99.90;;;;;;5030520;28;20047;-74
2023/12/23 11:59:58;;;;;;;12.30;1.92;;;10.40;99.90;;;;;;5016308;28;20045;-73
2023/12/23 12:02:24;;;;;;;9.70;1.25;;;10.40;99.90;;;;;;5023005;28;20489;-75
2023/12/23 12:04:51;;;;;;;7.85;1.30;;;10.40;99.90;;;;;;5028769;28;20517;-74
2023/12/23 12:07:18;;;;;;;5.22;1.30;;;10.40;99.90;;;;;;5013395;28;20044;-74
2023/12/23 12:09:44;;;;;;;5.78;0.98;;;10.40;99.90;;;;;;5023333;28;20048;-74
2023/12/23 12:12:11;;;;;;;4.53;1.17;;;10.40;99.90;;;;;;5025846;28;20033;-73
2023/12/23 12:14:37;;;;;;;3.05;0.70;;;10.40;99.90;;;;;;5031904;28;20067;-73
2023/12/23 12:17:03;;;;;;;7.38;1.42;;;10.40;99.90;;;;;;5009917;28;20460;-72
2023/12/23 12:19:28;;;;;;;4.15;1.30;;;10.40;99.90;;;;;;5023502;28;20052;-74
2023/12/23 12:21:55;;;;;;;11.65;1.73;;;10.40;99.90;;;;;;5010415;28;20088;-74
2023/12/23 12:24:20;;;;;;;10.48;1.60;;;10.40;99.90;;;;;;5024759;28;20120;-75
2023/12/23 12:26:52;;;;;;;11.52;1.70;;;10.30;99.90;;;;;;5022784;28;20172;-76
2023/12/23 12:29:21;;;;;;;5.65;1.30;;;10.30;99.90;;;;;;5007853;28;20037;-76
2023/12/23 12:31:59;;;;;;;9.03;1.77;;;10.30;99.90;;;;;;5006490;28;20060;-71
2023/12/23 12:34:28;;;;;;;8.70;1.40;;;10.30;99.90;;;;;;5023685;28;20298;-78
2023/12/23 12:36:56;;;;;;;9.93;2.40;;;10.30;99.90;;;;;;5010939;28;20108;-75
2023/12/23 12:39:22;;;;;;;11.30;1.80;;;10.30;99.90;;;;;;5007194;28;20081;-77
2023/12/23 12:41:48;;;;;;;9.68;1.52;;;10.30;99.90;;;;;;5023589;28;20053;-72
2023/12/23 12:44:15;;;;;;;8.75;1.85;;;10.30;99.90;;;;;;5024473;28;20041;-76
2023/12/23 12:46:42;;;;;;;12.88;2.28;;;10.30;99.90;;;;;;5007556;28;20047;-75
2023/12/23 12:49:10;;;;;;;8.68;1.10;;;10.30;99.90;;;;;;5007565;28;20171;-77